Birmingham, Ohio
Current Conditions -  °F | °C
As of 1:53 PM on Thursday 27 Nov 2014 (Local Time) from KLPR Reporting Station
Broken Clouds Broken Clouds  
Wind Chill: 21°   Ceiling: 3800
Heat Index: 31°   Visibility: 10mi
Dew Point: 21°   Wind: 14mph
Humidity: 67%   Direction: 320°NW
Pressure: 30.15"   Gusts: NA
Location:  41.33°N, 82.36°W
Report Text: KLPR 271853Z AUTO 32012KT 10SM BKN038 M01/M06 A3015 RMK AO2 SLP218 T10061061 TSNO
Loading
Personal Weather Stations






























Interactive Weather Map New forecast layout! Learn more

10-Day Weather Forecast

Advertisements
Track Severe Weather on mobile